< < Back
Terminal Aerodrome Forecast


Current Version              Previous Versions:   1  2  3  4  5  6  7  8  9  

Terminal Aerodrome Forecast

420
FTUS44 KMOB 280520
TAFPNS
TAF
KPNS 280520Z 2806/2906 VRB03KT P6SM FEW050 SCT100 BKN200
     FM281700 20008KT P6SM VCTS BKN050CB
      TEMPO 2820/2824 VRB15G25KT 3SM TSRA BKN030CB
     FM290000 35004KT P6SM VCTS BKN050CB=

Latest METAR

551
SAUS70 KWBC 281600 RRK
MTRPNS
METAR KPNS 281553Z 19008KT 10SM FEW026 BKN033 BKN041 29/23 A3001 RMK AO2
LTG DSNT S SLP165 T02940228


USA.gov is the U.S. government's official web portal to all federal, state and local government web resources and services.